Time;durP1;ratioP1;P1;durP2;ratioP2;P2;SDS_P1;SDS_P2;PMS_P1;PMS_P2;Temp;Humidity;BMP_temperature;BMP_pressure;BME280_temperature;BME280_humidity;BME280_pressure;Samples;Min_cycle;Max_cycle;Signal;HPM_P1;HPM_P2
2021/07/18 00:00:29;;;;;;;19.80;17.80;;;18.80;99.90;;;;;;5031864;28;20811;-67
2021/07/18 00:02:55;;;;;;;22.80;19.13;;;18.80;99.90;;;;;;5032111;28;20470;-67
2021/07/18 00:05:21;;;;;;;22.33;19.87;;;18.70;99.90;;;;;;5032323;28;20167;-69
2021/07/18 00:07:46;;;;;;;21.73;19.07;;;18.70;99.90;;;;;;5032222;28;20177;-68
2021/07/18 00:10:13;;;;;;;20.47;18.23;;;18.70;99.90;;;;;;5031999;28;20686;-68
2021/07/18 00:12:38;;;;;;;21.57;18.90;;;18.70;99.90;;;;;;5032127;28;20170;-71
2021/07/18 00:15:06;;;;;;;18.53;16.37;;;18.60;99.90;;;;;;5032044;28;20413;-67
2021/07/18 00:17:37;;;;;;;21.83;18.03;;;18.60;99.90;;;;;;5031964;28;20623;-67
2021/07/18 00:20:07;;;;;;;19.43;16.80;;;18.60;99.90;;;;;;5031710;28;20574;-68
2021/07/18 00:22:32;;;;;;;19.57;17.83;;;18.50;99.90;;;;;;5032064;28;20452;-65
2021/07/18 00:24:58;;;;;;;19.63;17.90;;;18.60;99.90;;;;;;5029050;28;20523;-65
2021/07/18 00:27:23;;;;;;;19.80;17.83;;;18.50;99.90;;;;;;5029582;28;20189;-64
2021/07/18 00:29:49;;;;;;;19.60;17.80;;;18.50;99.90;;;;;;5031121;28;20214;-65
2021/07/18 00:32:15;;;;;;;23.23;19.00;;;18.50;99.90;;;;;;5028867;28;20182;-64
2021/07/18 00:34:40;;;;;;;20.40;17.80;;;18.40;99.90;;;;;;5014191;28;20643;-65
2021/07/18 00:37:06;;;;;;;20.90;18.70;;;18.40;99.90;;;;;;5030910;28;20179;-64
2021/07/18 00:39:32;;;;;;;19.63;17.63;;;18.40;99.90;;;;;;5031455;28;20198;-64
2021/07/18 00:41:57;;;;;;;17.97;16.17;;;18.30;99.90;;;;;;5031907;28;20174;-64
2021/07/18 00:44:23;;;;;;;21.17;17.77;;;18.30;99.90;;;;;;5031735;28;20182;-64
2021/07/18 00:46:48;;;;;;;20.60;15.30;;;18.30;99.90;;;;;;5031616;28;20182;-64
2021/07/18 00:49:14;;;;;;;18.83;17.17;;;18.30;99.90;;;;;;5031105;28;20579;-64
2021/07/18 00:51:40;;;;;;;19.50;17.90;;;18.30;99.90;;;;;;5031526;28;20178;-64
2021/07/18 00:54:05;;;;;;;17.67;15.77;;;18.20;99.90;;;;;;5031308;28;20440;-64
2021/07/18 00:56:31;;;;;;;18.47;16.67;;;18.20;99.90;;;;;;5030827;28;20273;-64
2021/07/18 00:58:58;;;;;;;17.20;15.53;;;18.10;99.90;;;;;;5030992;28;20257;-64
2021/07/18 01:01:25;;;;;;;17.00;15.33;;;18.10;99.90;;;;;;5031553;28;20220;-64
2021/07/18 01:03:51;;;;;;;15.83;14.33;;;18.00;99.90;;;;;;5030871;28;20434;-64
2021/07/18 01:06:16;;;;;;;18.20;14.30;;;17.90;99.90;;;;;;5031488;28;20432;-64
2021/07/18 01:08:42;;;;;;;19.33;14.57;;;17.90;99.90;;;;;;5030832;28;20198;-64
2021/07/18 01:11:08;;;;;;;16.87;15.23;;;17.90;99.90;;;;;;5031672;28;20178;-64
2021/07/18 01:13:34;;;;;;;15.60;14.17;;;17.90;99.90;;;;;;5031835;28;20425;-64
2021/07/18 01:15:59;;;;;;;14.83;13.50;;;17.80;99.90;;;;;;5035049;28;20209;-64
2021/07/18 01:18:25;;;;;;;16.37;14.77;;;17.80;99.90;;;;;;5034874;28;20182;-64
2021/07/18 01:20:51;;;;;;;14.57;12.70;;;17.80;99.90;;;;;;5034692;28;20225;-64
2021/07/18 01:23:17;;;;;;;14.80;12.80;;;17.80;99.90;;;;;;5034949;28;20519;-64
2021/07/18 01:25:43;;;;;;;15.00;13.50;;;17.70;99.90;;;;;;5034767;28;20432;-64
2021/07/18 01:28:11;;;;;;;16.00;12.93;;;17.60;99.90;;;;;;5034688;28;20182;-64
2021/07/18 01:30:37;;;;;;;13.47;12.27;;;17.60;99.90;;;;;;5034332;28;20218;-64
2021/07/18 01:33:04;;;;;;;14.80;13.30;;;17.60;99.90;;;;;;5034611;28;20413;-63
2021/07/18 01:35:29;;;;;;;14.40;12.20;;;17.60;99.90;;;;;;5034482;28;20838;-64
2021/07/18 01:38:00;;;;;;;15.87;12.67;;;17.50;99.90;;;;;;5034555;28;20428;-63
2021/07/18 01:40:26;;;;;;;16.33;12.57;;;17.50;99.90;;;;;;5034491;28;20226;-64
2021/07/18 01:42:54;;;;;;;13.70;12.33;;;17.50;99.90;;;;;;5034788;28;20472;-64
2021/07/18 01:45:19;;;;;;;15.03;10.60;;;17.50;99.90;;;;;;5034444;28;20702;-64
2021/07/18 01:47:46;;;;;;;11.93;10.83;;;17.40;99.90;;;;;;5034671;28;20496;-64
2021/07/18 01:50:12;;;;;;;12.50;10.30;;;17.30;99.90;;;;;;5033790;28;20213;-64
2021/07/18 01:52:37;;;;;;;11.93;10.70;;;17.30;99.90;;;;;;5035054;28;20413;-64
2021/07/18 01:55:03;;;;;;;11.20;10.20;;;17.30;99.90;;;;;;5034385;28;20182;-64
2021/07/18 01:57:29;;;;;;;13.13;11.47;;;17.20;99.90;;;;;;5034145;28;20248;-64
2021/07/18 01:59:54;;;;;;;10.53;9.30;;;17.10;99.90;;;;;;5033580;28;20449;-64
2021/07/18 02:02:20;;;;;;;12.50;8.73;;;17.20;99.90;;;;;;5034026;28;20183;-64
2021/07/18 02:04:47;;;;;;;15.37;10.30;;;17.10;99.90;;;;;;5034785;28;20527;-64
2021/07/18 02:07:13;;;;;;;12.17;9.23;;;17.10;99.90;;;;;;5034185;28;20557;-64
2021/07/18 02:09:38;;;;;;;11.07;10.03;;;17.10;99.90;;;;;;5034404;28;20551;-64
2021/07/18 02:12:06;;;;;;;10.23;9.33;;;17.00;99.90;;;;;;5038211;28;20368;-64
2021/07/18 02:14:32;;;;;;;10.10;9.20;;;17.00;99.90;;;;;;5037972;28;20236;-64
2021/07/18 02:16:58;;;;;;;11.30;8.83;;;17.00;99.90;;;;;;5036988;28;20524;-64
2021/07/18 02:19:28;;;;;;;9.93;8.93;;;16.90;99.90;;;;;;5037472;28;20476;-64
2021/07/18 02:21:54;;;;;;;9.07;8.00;;;16.90;99.90;;;;;;5037373;28;20516;-64
2021/07/18 02:24:20;;;;;;;12.63;8.97;;;16.80;99.90;;;;;;5034903;28;20467;-64
2021/07/18 02:26:46;;;;;;;9.43;8.40;;;16.80;99.90;;;;;;5032860;28;20178;-64
2021/07/18 02:29:12;;;;;;;9.50;8.60;;;16.80;99.90;;;;;;5033129;28;20205;-64
2021/07/18 02:31:37;;;;;;;8.60;7.80;;;16.80;99.90;;;;;;5033847;28;20844;-64
2021/07/18 02:34:03;;;;;;;9.53;8.73;;;16.80;99.90;;;;;;5033603;28;20170;-64
2021/07/18 02:36:31;;;;;;;8.90;7.60;;;16.80;99.90;;;;;;5033751;28;20178;-64
2021/07/18 02:38:58;;;;;;;8.73;7.80;;;16.80;99.90;;;;;;5032895;28;20429;-65
2021/07/18 02:41:24;;;;;;;8.57;7.67;;;16.80;99.90;;;;;;5033307;28;20494;-65
2021/07/18 02:43:50;;;;;;;9.97;8.20;;;16.80;99.90;;;;;;5033051;28;20436;-65
2021/07/18 02:46:15;;;;;;;10.50;8.77;;;16.80;99.90;;;;;;5033234;28;20437;-65
2021/07/18 02:48:41;;;;;;;10.00;9.00;;;16.80;99.90;;;;;;5032876;28;20198;-64
2021/07/18 02:51:06;;;;;;;8.83;7.83;;;16.70;99.90;;;;;;5033856;28;20182;-64
2021/07/18 02:53:32;;;;;;;7.80;6.97;;;16.70;99.90;;;;;;5033430;28;20165;-64
2021/07/18 02:55:58;;;;;;;12.00;8.00;;;16.60;99.90;;;;;;5033237;28;20220;-65
2021/07/18 02:58:24;;;;;;;8.60;7.80;;;16.60;99.90;;;;;;5032835;28;20432;-64
2021/07/18 03:00:51;;;;;;;9.27;8.37;;;16.60;99.90;;;;;;5033061;28;20721;-64
2021/07/18 03:03:17;;;;;;;10.40;7.80;;;16.60;99.90;;;;;;5032921;28;20178;-64
2021/07/18 03:05:43;;;;;;;8.50;7.80;;;16.60;99.90;;;;;;5033045;28;20429;-65
2021/07/18 03:08:08;;;;;;;8.50;7.07;;;16.50;99.90;;;;;;5032980;28;20429;-64
2021/07/18 03:10:34;;;;;;;12.90;8.27;;;16.50;99.90;;;;;;5032803;28;20625;-64
2021/07/18 03:13:00;;;;;;;7.60;7.00;;;16.40;99.90;;;;;;5014739;28;20655;-64
2021/07/18 03:15:25;;;;;;;10.23;9.03;;;16.30;99.90;;;;;;5032832;28;20182;-64
2021/07/18 03:17:51;;;;;;;8.37;7.67;;;16.30;99.90;;;;;;5033101;28;20174;-64
2021/07/18 03:20:18;;;;;;;8.43;7.73;;;16.30;99.90;;;;;;5032654;28;20740;-64
2021/07/18 03:22:45;;;;;;;8.83;7.90;;;16.20;99.90;;;;;;5032378;28;20636;-64
2021/07/18 03:25:12;;;;;;;11.43;8.00;;;16.20;99.90;;;;;;5032830;28;20488;-64
2021/07/18 03:27:39;;;;;;;8.47;7.13;;;16.10;99.90;;;;;;5032808;28;20469;-64
2021/07/18 03:30:06;;;;;;;9.80;9.00;;;16.10;99.90;;;;;;5031675;28;20464;-64
2021/07/18 03:32:32;;;;;;;9.57;8.57;;;16.10;99.90;;;;;;5032347;28;20437;-64
2021/07/18 03:34:58;;;;;;;10.40;8.53;;;16.00;99.90;;;;;;5032788;28;20416;-64
2021/07/18 03:37:23;;;;;;;9.30;8.50;;;16.00;99.90;;;;;;5032200;28;20500;-64
2021/07/18 03:39:49;;;;;;;12.10;7.93;;;15.90;99.90;;;;;;5031971;28;20686;-64
2021/07/18 03:42:14;;;;;;;11.43;10.30;;;15.90;99.90;;;;;;5032560;28;20177;-64
2021/07/18 03:44:40;;;;;;;14.30;9.90;;;15.90;99.90;;;;;;5032345;28;20182;-64
2021/07/18 03:47:07;;;;;;;12.77;9.97;;;15.90;99.90;;;;;;5032493;28;20174;-64
2021/07/18 03:49:33;;;;;;;16.07;9.70;;;15.90;99.90;;;;;;5031901;28;20523;-64
2021/07/18 03:51:59;;;;;;;10.70;9.57;;;15.80;99.90;;;;;;5032144;28;20866;-64
2021/07/18 03:54:24;;;;;;;11.23;10.13;;;15.80;99.90;;;;;;5031864;28;20457;-65
2021/07/18 03:56:50;;;;;;;9.20;8.10;;;15.80;99.90;;;;;;5032299;28;20180;-64
2021/07/18 03:59:15;;;;;;;10.93;9.80;;;15.90;99.90;;;;;;5032030;28;20546;-65
2021/07/18 04:01:41;;;;;;;10.23;7.97;;;15.90;99.90;;;;;;5032120;28;20189;-64
2021/07/18 04:04:07;;;;;;;9.37;8.40;;;15.90;99.90;;;;;;5031850;28;20265;-65
2021/07/18 04:06:32;;;;;;;9.67;8.70;;;15.90;99.90;;;;;;5032097;28;20551;-64
2021/07/18 04:08:58;;;;;;;9.10;8.20;;;15.90;99.90;;;;;;5031354;28;20202;-64
2021/07/18 04:11:24;;;;;;;7.67;6.97;;;16.00;99.90;;;;;;5032249;28;20174;-64
2021/07/18 04:13:49;;;;;;;8.77;8.00;;;16.00;99.90;;;;;;5031500;28;20782;-63
2021/07/18 04:16:15;;;;;;;8.70;7.80;;;16.10;99.90;;;;;;5031932;28;20183;-64
2021/07/18 04:18:40;;;;;;;6.97;6.30;;;16.20;99.90;;;;;;5031561;28;20257;-64
2021/07/18 04:21:06;;;;;;;10.90;7.20;;;16.20;99.90;;;;;;5031658;28;20189;-64
2021/07/18 04:23:31;;;;;;;10.30;6.97;;;16.30;99.90;;;;;;5031292;28;20281;-65
2021/07/18 04:25:57;;;;;;;8.77;7.10;;;16.40;99.90;;;;;;5031888;28;20184;-65
2021/07/18 04:28:22;;;;;;;6.67;6.00;;;16.50;99.90;;;;;;5031443;28;20181;-64
2021/07/18 04:30:48;;;;;;;7.63;6.83;;;16.60;99.90;;;;;;5031465;28;20237;-64
2021/07/18 04:33:14;;;;;;;9.67;6.60;;;16.70;99.90;;;;;;5031436;28;20185;-64
2021/07/18 04:35:40;;;;;;;7.83;7.07;;;16.80;99.90;;;;;;5031558;28;20186;-64
2021/07/18 04:38:06;;;;;;;8.27;6.80;;;16.80;99.90;;;;;;5031888;28;20217;-64
2021/07/18 04:40:33;;;;;;;8.40;6.93;;;16.90;99.90;;;;;;5030846;28;20502;-64
2021/07/18 04:42:59;;;;;;;6.33;5.77;;;16.90;99.90;;;;;;5030597;28;20429;-64
2021/07/18 04:45:25;;;;;;;6.27;5.73;;;17.00;99.90;;;;;;5031012;28;20508;-64
2021/07/18 04:47:58;;;;;;;6.40;5.80;;;17.10;99.90;;;;;;5031324;28;20174;-64
2021/07/18 04:50:26;;;;;;;8.00;6.40;;;17.30;99.90;;;;;;5033898;28;20476;-64
2021/07/18 04:52:52;;;;;;;6.87;6.17;;;17.40;99.90;;;;;;5035799;28;20413;-64
2021/07/18 04:55:18;;;;;;;8.50;7.80;;;17.50;99.90;;;;;;5035746;28;20475;-64
2021/07/18 04:57:44;;;;;;;7.17;6.50;;;17.60;99.90;;;;;;5035338;28;20644;-64
2021/07/18 05:00:15;;;;;;;6.13;5.53;;;17.70;99.90;;;;;;5034656;28;20484;-64
2021/07/18 05:02:41;;;;;;;5.97;5.37;;;17.80;99.90;;;;;;5035342;28;20206;-64
2021/07/18 05:05:08;;;;;;;6.13;5.53;;;17.90;99.90;;;;;;5035198;28;20445;-64
2021/07/18 05:07:53;;;;;;;6.27;4.97;;;18.00;99.90;;;;;;5035414;28;20460;-64
2021/07/18 05:10:20;;;;;;;6.13;5.70;;;18.10;99.90;;;;;;5034701;28;20492;-64
2021/07/18 05:12:47;;;;;;;5.00;4.60;;;18.30;99.90;;;;;;5034940;28;20452;-64
2021/07/18 05:15:14;;;;;;;5.30;4.80;;;18.40;99.90;;;;;;5034929;28;20420;-64
2021/07/18 05:17:39;;;;;;;5.33;4.83;;;18.60;99.90;;;;;;5030541;28;20508;-64
2021/07/18 05:20:07;;;;;;;7.40;4.57;;;18.70;99.90;;;;;;5029067;28;20543;-65
2021/07/18 05:22:33;;;;;;;5.20;4.80;;;18.80;99.90;;;;;;5034881;28;20185;-65
2021/07/18 05:24:59;;;;;;;7.47;4.50;;;19.00;99.90;;;;;;5035253;28;20421;-65
2021/07/18 05:27:25;;;;;;;6.43;4.23;;;19.10;99.90;;;;;;5034949;28;20182;-65
2021/07/18 05:29:50;;;;;;;4.77;4.37;;;19.20;99.90;;;;;;5034455;28;20479;-65
2021/07/18 05:32:16;;;;;;;4.20;3.90;;;19.30;99.90;;;;;;5034877;28;20170;-65
2021/07/18 05:34:41;;;;;;;4.67;4.27;;;19.40;99.90;;;;;;5034414;28;20181;-65
2021/07/18 05:37:07;;;;;;;4.13;3.73;;;19.50;99.90;;;;;;5034983;28;20219;-65
2021/07/18 05:39:33;;;;;;;4.10;3.80;;;19.60;99.90;;;;;;5033952;28;20205;-65
2021/07/18 05:41:59;;;;;;;3.13;2.93;;;19.70;99.90;;;;;;5034448;28;20174;-65
2021/07/18 05:44:25;;;;;;;4.67;3.20;;;19.80;99.90;;;;;;5034759;28;20416;-65
2021/07/18 05:46:51;;;;;;;4.17;3.87;;;19.90;99.90;;;;;;5034589;28;20433;-65
2021/07/18 05:49:17;;;;;;;3.67;3.37;;;20.00;99.90;;;;;;5033947;28;20548;-65
2021/07/18 05:51:42;;;;;;;6.77;4.00;;;20.10;99.90;;;;;;5034455;28;20170;-66
2021/07/18 05:54:08;;;;;;;7.03;3.80;;;20.10;99.90;;;;;;5034738;28;20166;-66
2021/07/18 05:56:33;;;;;;;3.40;3.10;;;20.20;99.90;;;;;;5033172;28;20270;-65
2021/07/18 05:58:59;;;;;;;5.10;3.80;;;20.20;99.90;;;;;;5033963;28;20226;-66
2021/07/18 06:01:24;;;;;;;4.07;3.40;;;20.40;99.90;;;;;;5033608;28;20614;-66
2021/07/18 06:03:49;;;;;;;4.07;3.43;;;20.40;99.90;;;;;;5034448;28;20257;-66
2021/07/18 06:06:15;;;;;;;4.00;3.23;;;20.60;99.90;;;;;;5033999;28;20183;-65
2021/07/18 06:08:40;;;;;;;2.90;2.70;;;20.80;99.90;;;;;;5033977;28;20194;-66
2021/07/18 06:11:06;;;;;;;4.80;3.33;;;20.70;99.90;;;;;;5034255;28;20178;-66
2021/07/18 06:13:31;;;;;;;3.87;3.40;;;20.80;99.90;;;;;;5033982;28;20183;-66
2021/07/18 06:15:57;;;;;;;7.63;3.47;;;20.90;99.90;;;;;;5033637;28;20174;-66
2021/07/18 06:18:23;;;;;;;3.93;3.50;;;21.00;99.90;;;;;;5033906;28;20170;-66
2021/07/18 06:20:48;;;;;;;3.50;3.17;;;21.10;99.90;;;;;;5033913;28;20697;-65
2021/07/18 06:23:14;;;;;;;5.10;2.77;;;21.20;99.90;;;;;;5033730;28;20186;-66
2021/07/18 06:25:39;;;;;;;4.57;4.17;;;21.20;99.90;;;;;;5033794;28;20186;-66
2021/07/18 06:28:05;;;;;;;2.80;2.60;;;21.20;99.90;;;;;;5033252;28;20186;-66
2021/07/18 06:30:30;;;;;;;3.50;3.20;;;21.20;99.90;;;;;;5033063;28;20217;-65
2021/07/18 06:32:56;;;;;;;4.43;3.13;;;21.40;99.90;;;;;;5032786;28;20593;-65
2021/07/18 06:35:21;;;;;;;7.40;3.50;;;21.50;99.90;;;;;;5033159;28;20167;-65
2021/07/18 06:37:47;;;;;;;3.90;3.10;;;21.60;99.90;;;;;;5033886;28;20177;-66
2021/07/18 06:40:13;;;;;;;3.80;3.03;;;21.70;99.90;;;;;;5033025;28;20285;-65
2021/07/18 06:42:38;;;;;;;3.40;3.10;;;21.90;99.90;;;;;;5033662;28;20185;-65
2021/07/18 06:45:05;;;;;;;2.90;2.53;;;21.90;99.90;;;;;;5032480;28;20210;-66
2021/07/18 06:47:30;;;;;;;4.43;2.90;;;22.10;99.90;;;;;;5032622;28;20236;-66
2021/07/18 06:49:57;;;;;;;5.00;3.90;;;22.10;99.90;;;;;;5030342;28;20985;-66
2021/07/18 06:52:24;;;;;;;3.10;2.80;;;22.30;99.90;;;;;;5026279;28;20203;-66
2021/07/18 06:54:50;;;;;;;6.73;4.70;;;22.50;99.90;;;;;;5017662;28;20440;-67
2021/07/18 06:57:16;;;;;;;6.43;3.83;;;22.70;99.90;;;;;;5030943;28;20429;-68
2021/07/18 06:59:41;;;;;;;3.70;3.30;;;22.80;99.90;;;;;;5033027;28;20814;-68
2021/07/18 07:02:08;;;;;;;3.50;3.10;;;22.90;99.90;;;;;;5033224;28;20659;-68
2021/07/18 07:04:33;;;;;;;3.50;3.20;;;22.80;99.90;;;;;;5033391;28;20205;-68
2021/07/18 07:06:59;;;;;;;7.07;3.00;;;22.90;99.90;;;;;;5033262;28;20421;-68
2021/07/18 07:09:24;;;;;;;5.80;2.77;;;22.80;99.90;;;;;;5032552;28;20216;-68
2021/07/18 07:11:50;;;;;;;4.70;3.30;;;22.90;99.90;;;;;;5032471;28;20174;-69
2021/07/18 07:14:16;;;;;;;6.27;3.07;;;23.10;99.90;;;;;;5033090;28;20691;-69
2021/07/18 07:16:42;;;;;;;4.50;3.27;;;23.10;99.90;;;;;;5033056;28;20249;-69
2021/07/18 07:19:08;;;;;;;7.57;3.77;;;23.20;99.90;;;;;;5032023;28;20532;-70
2021/07/18 07:21:33;;;;;;;3.53;3.23;;;23.30;99.90;;;;;;5031514;28;20171;-70
2021/07/18 07:23:59;;;;;;;3.33;2.97;;;23.40;99.90;;;;;;5025409;28;20458;-71
2021/07/18 07:26:25;;;;;;;4.03;3.10;;;23.40;99.90;;;;;;5029095;28;20276;-70
2021/07/18 07:28:50;;;;;;;5.53;3.80;;;23.40;99.90;;;;;;5027433;28;20756;-70
2021/07/18 07:31:16;;;;;;;5.57;3.27;;;23.40;99.90;;;;;;5027121;28;20193;-70
2021/07/18 07:33:41;;;;;;;3.70;3.30;;;23.50;99.90;;;;;;5023419;28;20186;-70
2021/07/18 07:36:07;;;;;;;5.70;3.23;;;23.30;99.90;;;;;;5026498;28;20588;-68
2021/07/18 07:38:33;;;;;;;3.47;3.17;;;23.60;99.90;;;;;;5029126;28;20547;-69
2021/07/18 07:40:59;;;;;;;4.90;2.80;;;23.50;99.90;;;;;;5028646;28;20285;-69
2021/07/18 07:43:25;;;;;;;5.67;3.10;;;23.80;99.90;;;;;;5029366;28;20520;-68
2021/07/18 07:45:51;;;;;;;2.87;2.60;;;24.20;99.90;;;;;;5028585;28;20181;-68
2021/07/18 07:48:16;;;;;;;3.57;3.13;;;24.20;99.90;;;;;;5029023;28;20178;-69
2021/07/18 07:50:43;;;;;;;5.87;2.77;;;24.20;99.90;;;;;;5028647;28;20514;-67
2021/07/18 07:53:09;;;;;;;4.50;3.70;;;24.50;99.90;;;;;;5026158;28;20186;-69
2021/07/18 07:55:35;;;;;;;6.20;4.00;;;24.30;99.90;;;;;;5019389;28;20443;-67
2021/07/18 07:58:02;;;;;;;4.93;3.40;;;24.40;99.90;;;;;;5028899;28;20170;-67
2021/07/18 08:00:28;;;;;;;5.33;3.70;;;24.60;99.90;;;;;;5028426;28;20232;-66
2021/07/18 08:02:53;;;;;;;5.23;3.10;;;24.90;99.90;;;;;;5027430;28;20997;-65
2021/07/18 08:05:20;;;;;;;5.67;4.10;;;25.10;99.90;;;;;;5025730;28;20194;-69
2021/07/18 08:07:46;;;;;;;10.53;5.80;;;25.20;99.90;;;;;;5017705;28;20177;-67
2021/07/18 08:10:15;;;;;;;5.03;3.53;;;25.50;99.90;;;;;;5026139;28;20517;-66
2021/07/18 08:12:41;;;;;;;3.90;3.33;;;25.70;99.90;;;;;;5028365;28;20435;-67
2021/07/18 08:15:09;;;;;;;3.93;2.70;;;25.70;99.90;;;;;;5028287;28;20773;-66
2021/07/18 08:17:35;;;;;;;4.80;3.63;;;26.00;99.90;;;;;;5028834;28;20424;-66
2021/07/18 08:20:12;;;;;;;7.77;3.30;;;26.20;99.90;;;;;;5028745;28;20483;-66
2021/07/18 08:22:38;;;;;;;7.23;3.43;;;26.40;99.90;;;;;;5028710;28;20416;-66
2021/07/18 08:25:05;;;;;;;4.30;2.67;;;26.10;99.90;;;;;;5028753;28;20781;-66
2021/07/18 08:27:30;;;;;;;4.33;3.70;;;26.50;99.90;;;;;;5028290;28;20425;-66
2021/07/18 08:29:56;;;;;;;6.93;3.37;;;26.50;99.90;;;;;;5028203;28;20468;-66
2021/07/18 08:32:21;;;;;;;3.70;3.00;;;27.00;99.90;;;;;;5028137;28;20205;-65
2021/07/18 08:34:47;;;;;;;4.67;3.80;;;27.00;99.90;;;;;;5028476;28;20181;-66
2021/07/18 08:37:12;;;;;;;5.23;4.00;;;27.30;99.90;;;;;;5022322;28;20183;-66
2021/07/18 08:39:38;;;;;;;5.80;3.53;;;27.70;99.90;;;;;;5008526;28;20199;-66
2021/07/18 08:42:03;;;;;;;4.90;2.43;;;27.30;99.90;;;;;;5008948;28;20668;-67
2021/07/18 08:44:29;;;;;;;3.33;2.50;;;27.30;99.90;;;;;;5008815;28;20671;-66
2021/07/18 08:46:55;;;;;;;4.20;3.80;;;27.40;99.90;;;;;;5008644;28;20703;-66
2021/07/18 08:49:20;;;;;;;3.53;3.13;;;27.40;99.90;;;;;;5008998;28;20222;-66
2021/07/18 08:51:46;;;;;;;7.03;3.53;;;27.70;99.90;;;;;;5008773;28;20181;-67
2021/07/18 08:54:12;;;;;;;5.63;4.27;;;27.80;99.90;;;;;;5013416;28;20240;-67
2021/07/18 08:56:39;;;;;;;4.70;3.63;;;28.00;99.90;;;;;;5028618;28;20170;-66
2021/07/18 08:59:06;;;;;;;3.90;3.50;;;28.10;99.60;;;;;;5025098;28;20543;-65
2021/07/18 09:01:32;;;;;;;7.03;3.40;;;28.10;99.80;;;;;;5029091;28;20540;-66
2021/07/18 09:03:58;;;;;;;4.53;3.20;;;28.20;99.10;;;;;;5028029;28;20918;-67
2021/07/18 09:06:39;;;;;;;6.23;4.37;;;28.30;99.80;;;;;;5029101;28;20423;-66
2021/07/18 09:09:07;;;;;;;3.47;3.17;;;28.00;99.10;;;;;;5030137;28;20755;-67
2021/07/18 09:11:33;;;;;;;5.60;3.60;;;28.40;99.20;;;;;;5031409;28;20487;-66
2021/07/18 09:14:06;;;;;;;5.77;3.13;;;28.30;98.00;;;;;;5031386;28;20412;-66
2021/07/18 09:16:36;;;;;;;5.60;3.33;;;28.30;98.70;;;;;;5031397;28;20170;-66
2021/07/18 09:19:16;;;;;;;6.77;3.50;;;28.50;98.60;;;;;;5030976;28;20433;-67
2021/07/18 09:22:18;;;;;;;4.03;3.70;;;28.70;98.30;;;;;;5031433;28;20416;-66
2021/07/18 09:24:47;;;;;;;4.83;4.00;;;28.90;97.80;;;;;;5024723;28;20828;-66
2021/07/18 09:27:19;;;;;;;7.27;3.77;;;29.10;96.80;;;;;;5031685;28;20424;-66
2021/07/18 09:30:10;;;;;;;4.93;3.40;;;29.20;97.50;;;;;;5028351;28;20464;-66
2021/07/18 09:32:39;;;;;;;4.93;3.17;;;29.20;97.20;;;;;;5021502;28;20822;-67
2021/07/18 09:35:13;;;;;;;6.50;3.50;;;29.40;97.10;;;;;;5031923;28;20821;-65
2021/07/18 09:37:44;;;;;;;3.60;3.17;;;29.40;96.40;;;;;;5027527;28;20448;-65
2021/07/18 09:40:19;;;;;;;3.60;3.30;;;29.50;97.10;;;;;;5014840;28;20437;-66
2021/07/18 09:42:56;;;;;;;4.40;4.00;;;30.10;96.30;;;;;;5020303;28;20444;-67
2021/07/18 09:45:30;;;;;;;4.27;3.00;;;30.40;94.90;;;;;;5028929;28;20427;-66
2021/07/18 09:48:05;;;;;;;5.07;3.47;;;30.40;95.20;;;;;;5032841;28;20415;-66
2021/07/18 09:50:44;;;;;;;4.60;4.17;;;30.40;94.40;;;;;;5014421;28;20838;-67
2021/07/18 09:53:30;;;;;;;5.10;4.70;;;30.70;94.80;;;;;;5014976;28;20547;-67
2021/07/18 09:56:00;;;;;;;4.90;4.40;;;30.90;93.20;;;;;;5014724;28;20769;-66
2021/07/18 09:58:26;;;;;;;5.53;5.10;;;31.00;92.80;;;;;;5014448;28;20425;-67
2021/07/18 10:00:52;;;;;;;7.80;4.00;;;31.20;93.50;;;;;;5022553;28;20452;-66
2021/07/18 10:03:22;;;;;;;6.87;3.43;;;31.50;92.40;;;;;;5034508;28;20470;-67
2021/07/18 10:06:27;;;;;;;4.47;4.07;;;31.80;91.80;;;;;;5034421;28;20500;-67
2021/07/18 10:08:59;;;;;;;7.23;3.23;;;32.10;91.10;;;;;;5011759;28;20461;-66
2021/07/18 10:11:27;;;;;;;4.00;3.00;;;32.30;90.50;;;;;;5012150;28;20429;-67
2021/07/18 10:13:54;;;;;;;3.23;2.93;;;32.10;88.60;;;;;;5023845;28;20941;-67
2021/07/18 10:16:22;;;;;;;3.50;2.93;;;32.10;89.50;;;;;;5034214;28;20413;-66
2021/07/18 10:18:49;;;;;;;4.10;3.00;;;32.10;90.00;;;;;;5033740;28;20421;-67
2021/07/18 10:21:26;;;;;;;4.47;3.27;;;32.50;86.80;;;;;;5034173;28;20423;-67
2021/07/18 10:23:53;;;;;;;4.50;2.70;;;32.90;85.00;;;;;;5033985;28;20417;-66
2021/07/18 10:26:25;;;;;;;7.53;3.30;;;32.80;86.10;;;;;;5033968;28;20429;-66
2021/07/18 10:28:51;;;;;;;4.87;3.67;;;33.30;84.50;;;;;;5033455;28;20961;-67
2021/07/18 10:31:23;;;;;;;6.10;3.40;;;34.30;81.80;;;;;;5033955;28;20421;-67
2021/07/18 10:33:49;;;;;;;3.50;3.20;;;34.70;79.00;;;;;;5033884;28;20413;-66
2021/07/18 10:36:19;;;;;;;4.07;3.50;;;35.00;75.30;;;;;;5033728;28;20425;-66
2021/07/18 10:38:45;;;;;;;7.30;3.57;;;35.30;74.60;;;;;;5014392;28;20449;-67
2021/07/18 10:41:12;;;;;;;4.53;3.50;;;35.10;73.10;;;;;;5013874;28;20426;-66
2021/07/18 10:43:44;;;;;;;4.57;3.20;;;35.00;71.80;;;;;;5023577;28;20179;-66
2021/07/18 10:46:12;;;;;;;4.07;3.57;;;34.90;72.40;;;;;;5013697;28;20422;-67
2021/07/18 10:48:42;;;;;;;3.80;3.50;;;35.30;71.70;;;;;;5012789;28;20418;-67
2021/07/18 10:51:08;;;;;;;3.57;3.27;;;35.10;69.60;;;;;;5013843;28;20422;-67
2021/07/18 10:53:35;;;;;;;3.50;3.20;;;34.80;69.90;;;;;;5013809;28;20804;-67
2021/07/18 10:56:01;;;;;;;4.70;3.27;;;35.40;69.20;;;;;;5013691;28;20791;-67
2021/07/18 10:58:39;;;;;;;3.37;3.07;;;36.20;69.30;;;;;;5013327;28;20436;-67
2021/07/18 11:01:11;;;;;;;3.73;3.40;;;36.50;67.10;;;;;;5013678;28;20497;-67
2021/07/18 11:03:44;;;;;;;8.03;3.70;;;36.80;64.60;;;;;;5012405;28;20907;-66
2021/07/18 11:06:28;;;;;;;3.60;3.30;;;36.80;63.50;;;;;;5013542;28;20418;-66
2021/07/18 11:09:18;;;;;;;6.90;3.53;;;37.10;63.30;;;;;;5013088;28;20970;-66
2021/07/18 11:11:45;;;;;;;4.47;3.13;;;37.30;60.50;;;;;;5013229;28;20425;-66
2021/07/18 11:14:24;;;;;;;4.57;4.13;;;38.00;59.40;;;;;;5013544;28;20875;-66
2021/07/18 11:17:01;;;;;;;3.10;2.90;;;37.70;57.80;;;;;;5013285;28;20417;-67
2021/07/18 11:19:39;;;;;;;3.50;3.20;;;37.30;58.20;;;;;;5013030;28;20951;-66
2021/07/18 11:22:11;;;;;;;5.60;3.57;;;37.90;58.20;;;;;;5024864;28;20535;-66
2021/07/18 11:24:47;;;;;;;4.40;3.70;;;37.70;58.00;;;;;;5012991;28;20444;-66
2021/07/18 11:27:26;;;;;;;6.30;3.47;;;39.00;56.00;;;;;;5024127;28;20829;-67
2021/07/18 11:29:52;;;;;;;9.07;8.33;;;39.90;54.50;;;;;;5032452;28;20483;-66
2021/07/18 11:32:20;;;;;;;4.37;3.40;;;40.20;53.00;;;;;;5032717;28;20429;-67
2021/07/18 11:34:47;;;;;;;4.27;3.97;;;40.20;52.70;;;;;;5032840;28;20443;-67
2021/07/18 11:37:14;;;;;;;4.30;3.90;;;40.20;52.40;;;;;;5032792;28;20416;-67
2021/07/18 11:39:42;;;;;;;3.40;3.20;;;40.30;51.50;;;;;;5019027;28;20485;-66
2021/07/18 11:42:10;;;;;;;3.67;3.00;;;39.90;51.00;;;;;;5012848;28;20418;-66
2021/07/18 11:44:39;;;;;;;5.13;3.40;;;39.50;50.50;;;;;;5012895;28;20915;-66
2021/07/18 11:47:07;;;;;;;2.93;2.73;;;39.90;51.40;;;;;;5014221;28;20461;-66
2021/07/18 11:49:35;;;;;;;5.20;4.70;;;40.70;50.30;;;;;;5020015;28;20472;-66
2021/07/18 11:52:01;;;;;;;3.33;2.97;;;40.60;49.90;;;;;;5028682;28;20519;-66
2021/07/18 11:54:28;;;;;;;6.50;4.10;;;39.70;49.60;;;;;;5028512;28;20439;-66
2021/07/18 11:56:54;;;;;;;3.77;3.50;;;39.50;50.30;;;;;;5045857;28;20838;-66
2021/07/18 11:59:22;;;;;;;3.40;3.20;;;40.10;48.80;;;;;;5048422;28;20440;-66
2021/07/18 12:01:51;;;;;;;3.37;3.07;;;40.30;48.60;;;;;;5049073;28;20201;-66
2021/07/18 12:04:22;;;;;;;5.90;4.13;;;40.90;47.50;;;;;;5049105;28;20427;-67
2021/07/18 12:06:50;;;;;;;4.00;3.70;;;41.60;46.60;;;;;;5044882;28;20420;-67
2021/07/18 12:09:21;;;;;;;4.20;3.73;;;41.50;45.10;;;;;;5030837;28;20555;-65
2021/07/18 12:11:48;;;;;;;4.27;3.87;;;41.60;46.10;;;;;;5031487;28;20404;-67
2021/07/18 12:14:15;;;;;;;7.40;3.93;;;41.10;45.90;;;;;;5031908;28;20421;-67
2021/07/18 12:16:44;;;;;;;4.47;4.07;;;41.60;46.00;;;;;;5024266;28;20788;-66
2021/07/18 12:19:10;;;;;;;6.80;4.40;;;42.10;44.70;;;;;;5021082;28;20441;-67
2021/07/18 12:21:41;;;;;;;5.77;5.27;;;41.90;45.00;;;;;;5021184;28;20428;-63
2021/07/18 12:24:31;;;;;;;5.87;5.37;;;41.70;44.30;;;;;;5021097;28;20183;-64
2021/07/18 12:27:02;;;;;;;5.93;5.40;;;42.00;43.90;;;;;;5022758;28;20455;-67
2021/07/18 12:29:30;;;;;;;6.53;4.93;;;42.60;43.30;;;;;;5029134;28;20544;-67
2021/07/18 12:31:57;;;;;;;5.50;5.00;;;42.60;43.40;;;;;;5031896;28;20421;-67
2021/07/18 12:34:28;;;;;;;6.40;5.93;;;42.10;44.20;;;;;;5031897;28;20441;-67
2021/07/18 12:37:22;;;;;;;6.77;6.20;;;42.50;43.80;;;;;;5031832;28;20975;-67
2021/07/18 12:39:56;;;;;;;8.80;8.10;;;41.00;44.30;;;;;;5028414;28;20563;-67
2021/07/18 12:42:33;;;;;;;6.70;6.27;;;40.40;45.00;;;;;;5031754;28;20420;-67
2021/07/18 12:45:21;;;;;;;7.83;7.30;;;41.30;45.00;;;;;;5031839;28;20421;-67